createdAt,value
2022-10-01T08:47:50.342Z,24.95
2022-10-01T08:50:30.030Z,43.83
2022-10-01T08:53:02.916Z,25.10
2022-10-01T08:55:36.634Z,21.40
2022-10-01T08:58:07.128Z,24.20
2022-10-01T09:00:40.165Z,23.00
2022-10-01T09:03:14.697Z,23.80
2022-10-01T09:05:55.262Z,25.23
2022-10-01T09:08:44.713Z,23.05
2022-10-01T09:11:25.002Z,25.95
2022-10-01T09:14:15.137Z,26.70
2022-10-01T09:16:53.500Z,25.63
2022-10-01T09:19:46.080Z,26.77
2022-10-01T09:22:26.299Z,30.50
2022-10-01T09:25:02.644Z,27.60
2022-10-01T09:30:04.037Z,27.42
2022-10-01T09:32:38.038Z,28.20
2022-10-01T09:35:22.232Z,27.73
2022-10-01T09:37:56.194Z,29.85
2022-10-01T09:40:34.720Z,26.27
2022-10-01T09:43:03.922Z,26.55
2022-10-01T09:45:32.653Z,27.05
2022-10-01T09:48:15.810Z,26.33
2022-10-01T09:50:59.147Z,27.55
2022-10-01T09:53:34.964Z,29.92
2022-10-01T09:56:11.615Z,27.20
2022-10-01T09:58:43.463Z,27.70
2022-10-01T10:01:21.950Z,28.50
2022-10-01T10:03:58.249Z,28.88
2022-10-01T10:06:33.115Z,28.83
2022-10-01T10:09:03.342Z,28.90
2022-10-01T10:11:33.449Z,26.23
2022-10-01T10:14:04.698Z,27.15
2022-10-01T10:16:36.076Z,29.83
2022-10-01T10:19:09.750Z,27.42
2022-10-01T10:21:39.492Z,27.65
2022-10-01T10:24:24.582Z,28.38
2022-10-01T10:26:56.311Z,28.23
2022-10-01T10:29:31.145Z,27.25
2022-10-01T10:32:00.884Z,30.58
2022-10-01T10:34:33.956Z,26.73
2022-10-01T10:37:07.313Z,25.33
2022-10-01T10:39:38.866Z,26.00
2022-10-01T10:42:08.818Z,28.77
2022-10-01T10:44:40.275Z,26.20
2022-10-01T10:47:11.863Z,30.30
2022-10-01T10:49:46.346Z,25.35
2022-10-01T10:52:30.123Z,39.97
2022-10-01T10:55:00.583Z,30.08
2022-10-01T10:57:31.050Z,26.40
2022-10-01T11:00:01.602Z,28.45
2022-10-01T11:02:33.830Z,30.08
2022-10-01T11:05:06.879Z,29.50
2022-10-01T11:07:36.773Z,27.50
2022-10-01T11:10:24.886Z,25.90
2022-10-01T11:13:18.716Z,24.17
2022-10-01T11:16:19.766Z,26.65
2022-10-01T11:18:58.554Z,25.20
2022-10-01T11:21:40.587Z,24.92
2022-10-01T11:24:26.867Z,24.40
2022-10-01T11:26:59.325Z,23.50
2022-10-01T11:29:43.211Z,22.05
2022-10-01T11:32:23.527Z,22.63
2022-10-01T11:35:05.669Z,21.90
2022-10-01T11:37:50.739Z,22.65
2022-10-01T11:40:25.699Z,23.70
2022-10-01T11:42:58.541Z,21.33
2022-10-01T11:45:33.160Z,21.17
2022-10-01T11:48:06.451Z,20.13
2022-10-01T11:50:42.004Z,19.55
2022-10-01T11:53:16.806Z,19.38
2022-10-01T11:56:10.575Z,21.08
2022-10-01T11:58:53.217Z,17.88
2022-10-01T12:01:31.421Z,19.30
2022-10-01T12:04:07.549Z,18.27
2022-10-01T12:06:41.978Z,15.93
2022-10-01T12:09:18.820Z,17.33
2022-10-01T12:11:55.737Z,13.48
2022-10-01T12:16:59.716Z,12.60
2022-10-01T12:19:32.469Z,12.10
2022-10-01T12:22:08.317Z,13.65
2022-10-01T12:24:41.367Z,12.25
2022-10-01T12:27:40.031Z,13.23
2022-10-01T12:30:13.901Z,12.50
2022-10-01T12:32:58.193Z,12.63
2022-10-01T12:35:39.984Z,11.35
2022-10-01T12:38:18.790Z,10.07
2022-10-01T12:40:52.501Z,11.60
2022-10-01T12:43:39.498Z,10.23
2022-10-01T12:46:17.506Z,9.88
2022-10-01T12:48:58.211Z,10.30
2022-10-01T12:51:40.246Z,9.45
2022-10-01T12:54:37.706Z,9.05
2022-10-01T12:57:19.865Z,9.63
2022-10-01T13:00:03.918Z,11.38
2022-10-01T13:03:14.334Z,8.70
2022-10-01T13:05:57.980Z,9.60
2022-10-01T13:08:40.130Z,9.35
2022-10-01T13:11:25.483Z,10.93
2022-10-01T13:13:55.997Z,10.80
2022-10-01T13:16:33.758Z,11.32
2022-10-01T13:19:08.439Z,10.38
2022-10-01T13:21:53.820Z,12.68
2022-10-01T13:24:30.990Z,14.93
2022-10-01T13:27:03.640Z,13.60
2022-10-01T13:29:48.198Z,14.23
2022-10-01T13:32:30.517Z,16.85
2022-10-01T13:35:01.057Z,17.25
2022-10-01T13:37:35.848Z,17.17
2022-10-01T13:40:05.929Z,18.98
2022-10-01T13:42:43.511Z,16.63
2022-10-01T13:45:25.700Z,20.17
2022-10-01T13:48:05.922Z,14.77
2022-10-01T13:50:34.659Z,16.20
2022-10-01T13:53:09.585Z,17.20
2022-10-01T13:55:43.071Z,16.42
2022-10-01T13:58:24.310Z,15.63
2022-10-01T14:00:54.546Z,16.75
2022-10-01T14:03:39.136Z,14.75
2022-10-01T14:06:10.144Z,12.68
2022-10-01T14:08:44.138Z,10.90
2022-10-01T14:11:34.429Z,12.50
2022-10-01T14:14:30.273Z,12.82
2022-10-01T14:17:01.587Z,13.25
2022-10-01T14:19:32.432Z,11.57
2022-10-01T14:22:15.446Z,9.68
2022-10-01T14:25:01.904Z,9.43
2022-10-01T14:27:38.328Z,10.05
2022-10-01T14:30:12.215Z,9.77
2022-10-01T14:32:58.248Z,9.43
2022-10-01T14:35:36.721Z,10.32
2022-10-01T14:38:12.996Z,12.18
2022-10-01T14:40:43.624Z,12.52
2022-10-01T14:43:19.442Z,10.18
2022-10-01T14:45:56.423Z,9.82
2022-10-01T14:48:26.183Z,8.15
2022-10-01T14:50:58.271Z,7.80
2022-10-01T14:53:29.592Z,9.10
2022-10-01T14:56:02.926Z,9.35
2022-10-01T14:58:35.255Z,8.82
2022-10-01T15:01:03.667Z,10.63
2022-10-01T15:03:39.421Z,10.80
2022-10-01T15:06:13.921Z,9.45
2022-10-01T15:08:44.146Z,8.82
2022-10-01T15:11:17.600Z,7.53
2022-10-01T15:13:48.257Z,9.23
2022-10-01T15:16:19.339Z,9.05
2022-10-01T15:18:53.467Z,10.32
2022-10-01T15:21:28.389Z,11.23
2022-10-01T15:23:58.088Z,9.50
2022-10-01T15:26:29.884Z,10.15
2022-10-01T15:29:05.963Z,9.95
2022-10-01T15:31:35.452Z,11.47
2022-10-01T15:34:04.766Z,10.70
2022-10-01T15:36:37.303Z,9.60
2022-10-01T15:39:22.949Z,12.50
2022-10-01T15:41:52.972Z,10.82
2022-10-01T15:44:41.151Z,12.77
2022-10-01T15:47:26.587Z,14.32
2022-10-01T15:50:07.882Z,13.38
2022-10-01T15:52:52.564Z,17.48
2022-10-01T15:55:25.068Z,16.10
2022-10-01T15:57:57.414Z,15.18
2022-10-01T16:00:28.029Z,15.23
2022-10-01T16:02:58.517Z,16.83
2022-10-01T16:05:30.604Z,16.83
2022-10-01T16:08:00.443Z,19.80
2022-10-01T16:10:37.473Z,18.33
2022-10-01T16:13:30.686Z,21.83
2022-10-01T16:16:09.089Z,20.45
2022-10-01T16:18:38.545Z,22.83
2022-10-01T16:21:09.281Z,21.58
2022-10-01T16:23:42.979Z,20.80
2022-10-01T16:26:47.123Z,21.23
2022-10-01T16:29:23.381Z,21.17
2022-10-01T16:31:52.141Z,21.90
2022-10-01T16:34:21.846Z,25.23
2022-10-01T16:36:50.410Z,23.02
2022-10-01T16:39:20.145Z,23.42
2022-10-01T16:42:01.670Z,24.13
2022-10-01T16:44:39.480Z,25.95
2022-10-01T16:47:07.781Z,24.90
2022-10-01T16:49:36.161Z,25.45
2022-10-01T16:52:04.912Z,21.60
2022-10-01T16:54:35.317Z,23.35
2022-10-01T16:57:03.669Z,27.13
2022-10-01T16:59:33.933Z,24.02
2022-10-01T17:02:02.520Z,20.10
2022-10-01T17:04:34.092Z,20.98
2022-10-01T17:07:02.945Z,19.27
2022-10-01T17:09:31.420Z,22.73
2022-10-01T17:12:01.928Z,22.17
2022-10-01T17:14:30.406Z,22.42
2022-10-01T17:16:58.801Z,24.63
2022-10-01T17:19:27.195Z,22.40
2022-10-01T17:21:55.990Z,21.65
2022-10-01T17:24:24.434Z,23.40
2022-10-01T17:26:52.879Z,22.05
2022-10-01T17:29:22.602Z,23.48
2022-10-01T17:31:53.436Z,20.85
2022-10-01T17:34:22.180Z,19.98
2022-10-01T17:36:50.489Z,21.65
2022-10-01T17:39:18.811Z,22.92
2022-10-01T17:41:47.314Z,20.70
2022-10-01T17:44:15.808Z,20.48
2022-10-01T17:46:45.561Z,24.42
2022-10-01T17:49:14.740Z,22.80
2022-10-01T17:51:43.065Z,23.05
2022-10-01T17:54:11.504Z,21.60
2022-10-01T17:56:42.024Z,29.60
2022-10-01T17:59:10.380Z,21.58
2022-10-01T18:01:41.730Z,23.35
2022-10-01T18:04:13.160Z,20.70
2022-10-01T18:06:43.860Z,19.58
2022-10-01T18:09:12.210Z,21.95
2022-10-01T18:11:40.787Z,22.35
2022-10-01T18:14:09.165Z,22.98
2022-10-01T18:16:38.006Z,21.17
2022-10-01T18:21:57.078Z,21.35
2022-10-01T18:24:26.168Z,20.33
2022-10-01T18:26:54.758Z,21.40
2022-10-01T18:29:25.282Z,18.15
2022-10-01T18:31:56.083Z,21.10
2022-10-01T18:34:32.660Z,18.77
2022-10-01T18:37:07.461Z,19.98
2022-10-01T18:39:41.952Z,21.67
2022-10-01T18:42:19.612Z,19.52
2022-10-01T18:44:53.443Z,21.05
2022-10-01T18:47:32.602Z,19.83
2022-10-01T18:50:33.102Z,20.80
2022-10-01T18:53:20.292Z,22.95
2022-10-01T18:56:11.601Z,22.88
2022-10-01T18:59:01.256Z,18.83
2022-10-01T19:01:41.728Z,18.05
2022-10-01T19:04:37.469Z,16.58
2022-10-01T19:07:22.484Z,16.17
2022-10-01T19:10:05.851Z,14.63
2022-10-01T19:12:49.020Z,16.98
2022-10-01T19:15:27.136Z,14.90
2022-10-01T19:18:07.007Z,15.00
2022-10-01T19:20:55.226Z,13.60
2022-10-01T19:23:41.767Z,13.50
2022-10-01T19:26:17.905Z,14.60
2022-10-01T19:29:00.654Z,13.65
2022-10-01T19:31:40.424Z,10.30
2022-10-01T19:34:14.135Z,9.52
2022-10-01T19:36:51.576Z,6.78
2022-10-01T19:39:24.123Z,16.23
2022-10-01T19:41:58.707Z,7.32
2022-10-01T19:44:33.090Z,5.50
2022-10-01T19:47:15.888Z,6.75
2022-10-01T19:49:46.381Z,6.53
2022-10-01T19:52:18.319Z,6.00
2022-10-01T19:54:52.769Z,5.65
2022-10-01T19:57:25.836Z,5.72
2022-10-01T19:59:57.084Z,6.10
2022-10-01T20:02:35.369Z,5.25
2022-10-01T20:05:07.198Z,5.20
2022-10-01T20:07:43.413Z,5.82
2022-10-01T20:10:20.724Z,6.10
2022-10-01T20:13:03.903Z,7.07
2022-10-01T20:15:43.695Z,7.07
2022-10-01T20:18:27.991Z,7.85
2022-10-01T20:21:15.327Z,7.85
2022-10-01T20:23:50.328Z,8.70
2022-10-01T20:26:26.832Z,7.57
2022-10-01T20:29:13.566Z,8.30
2022-10-01T20:31:48.931Z,8.07
2022-10-01T20:34:27.583Z,9.50
2022-10-01T20:37:09.675Z,9.52
2022-10-01T20:39:42.990Z,9.88
2022-10-01T20:42:18.993Z,10.65
2022-10-01T20:44:49.109Z,10.77
2022-10-01T20:47:24.874Z,11.50
2022-10-01T20:50:04.785Z,10.27
2022-10-01T20:52:42.654Z,10.55
2022-10-01T20:55:15.747Z,10.10
2022-10-01T20:57:50.533Z,10.13
2022-10-01T21:00:23.423Z,11.15
2022-10-01T21:02:58.487Z,10.77
2022-10-01T21:05:30.578Z,9.75
2022-10-01T21:08:04.437Z,9.38
2022-10-01T21:10:39.826Z,9.88
2022-10-01T21:13:16.091Z,9.20
2022-10-01T21:15:56.202Z,9.35
2022-10-01T21:18:35.561Z,8.13
2022-10-01T21:21:16.517Z,7.50
2022-10-01T21:24:03.049Z,7.88
2022-10-01T21:26:41.541Z,9.98
2022-10-01T21:29:26.722Z,6.43
2022-10-01T21:32:12.729Z,7.90
2022-10-01T21:34:58.166Z,6.88
2022-10-01T21:37:32.641Z,7.18
2022-10-01T21:40:08.913Z,6.97
2022-10-01T21:42:50.531Z,7.85
2022-10-01T21:45:29.045Z,6.97
2022-10-01T21:48:16.275Z,7.57
2022-10-01T21:50:53.101Z,6.68
2022-10-01T21:53:41.181Z,6.57
2022-10-01T21:56:37.570Z,7.15
2022-10-01T21:59:11.784Z,7.03
2022-10-01T22:02:01.758Z,7.60
2022-10-01T22:04:39.982Z,6.22
2022-10-01T22:07:18.116Z,5.65
2022-10-01T22:09:58.206Z,5.72
2022-10-01T22:12:28.862Z,5.28
2022-10-01T22:14:59.362Z,6.15
2022-10-01T22:17:32.640Z,6.07
2022-10-01T22:20:06.459Z,6.28
2022-10-01T22:22:38.893Z,6.00
2022-10-01T22:25:09.865Z,6.05
2022-10-01T22:27:44.351Z,6.10
2022-10-01T22:30:17.137Z,6.45
2022-10-01T22:32:50.315Z,6.10
2022-10-01T22:35:26.082Z,5.13
2022-10-01T22:37:59.978Z,4.72
2022-10-01T22:40:33.650Z,5.38
2022-10-01T22:43:07.041Z,5.15
2022-10-01T22:45:50.517Z,5.55
2022-10-01T22:48:35.344Z,5.82
2022-10-01T22:51:22.826Z,4.60
2022-10-01T22:56:39.208Z,4.53
2022-10-01T22:59:17.707Z,4.28
2022-10-01T23:01:57.027Z,4.85
2022-10-01T23:04:39.100Z,4.30
2022-10-01T23:07:17.845Z,4.57
2022-10-01T23:09:52.056Z,4.35
2022-10-01T23:12:26.816Z,3.83
2022-10-01T23:15:05.719Z,3.80
2022-10-01T23:17:41.522Z,3.63
2022-10-01T23:20:22.788Z,3.83
2022-10-01T23:23:20.147Z,4.60
2022-10-01T23:26:10.385Z,9.27
2022-10-01T23:28:50.305Z,4.13
2022-10-01T23:31:32.867Z,3.95
2022-10-01T23:34:14.183Z,3.60
2022-10-01T23:36:48.198Z,4.13
2022-10-01T23:39:46.552Z,4.47
2022-10-01T23:42:34.620Z,3.90
2022-10-01T23:45:17.438Z,3.70
2022-10-01T23:47:51.342Z,4.68
2022-10-01T23:50:24.739Z,4.10
2022-10-01T23:53:03.137Z,3.53
2022-10-01T23:56:01.377Z,3.40
2022-10-01T23:58:34.670Z,3.78
